createdAt,value
2019-04-06T00:00:54.354Z,15.10
2019-04-06T00:03:23.691Z,17.00
2019-04-06T00:05:53.117Z,15.07
2019-04-06T00:08:22.597Z,15.67
2019-04-06T00:10:52.052Z,16.20
2019-04-06T00:13:21.402Z,15.50
2019-04-06T00:15:50.869Z,15.90
2019-04-06T00:18:20.206Z,15.57
2019-04-06T00:20:49.553Z,15.87
2019-04-06T00:23:18.938Z,15.37
2019-04-06T00:25:48.361Z,16.47
2019-04-06T00:28:17.764Z,16.67
2019-04-06T00:31:08.868Z,16.03
2019-04-06T00:33:38.340Z,15.27
2019-04-06T00:36:07.710Z,15.63
2019-04-06T00:38:36.984Z,17.27
2019-04-06T00:41:06.358Z,16.47
2019-04-06T00:43:35.775Z,17.10
2019-04-06T00:46:05.210Z,16.33
2019-04-06T00:48:34.528Z,17.13
2019-04-06T00:51:03.895Z,15.40
2019-04-06T00:53:33.246Z,16.63
2019-04-06T00:56:02.627Z,17.00
2019-04-06T00:58:31.982Z,15.90
2019-04-06T01:01:01.340Z,16.90
2019-04-06T01:03:30.685Z,16.93
2019-04-06T01:05:59.992Z,16.57
2019-04-06T01:08:29.393Z,16.70
2019-04-06T01:10:58.802Z,16.30
2019-04-06T01:13:28.145Z,16.53
2019-04-06T01:15:57.631Z,15.27
2019-04-06T01:18:27.071Z,16.30
2019-04-06T01:20:56.446Z,16.57
2019-04-06T01:23:25.846Z,16.07
2019-04-06T01:26:06.308Z,16.37
2019-04-06T01:28:26.347Z,15.73
2019-04-06T01:30:55.743Z,16.07
2019-04-06T01:33:25.090Z,16.93
2019-04-06T01:35:54.425Z,15.90
2019-04-06T01:38:24.016Z,16.80
2019-04-06T01:40:53.475Z,16.10
2019-04-06T01:43:23.026Z,18.37
2019-04-06T01:45:52.442Z,16.33
2019-04-06T01:48:21.846Z,18.00
2019-04-06T01:50:51.278Z,16.77
2019-04-06T01:53:20.783Z,16.93
2019-04-06T01:55:50.273Z,15.90
2019-04-06T01:58:19.775Z,16.00
2019-04-06T02:01:07.141Z,17.00
2019-04-06T02:03:36.463Z,16.23
2019-04-06T02:06:06.083Z,16.77
2019-04-06T02:08:35.459Z,17.60
2019-04-06T02:11:04.903Z,17.70
2019-04-06T02:13:34.290Z,17.87
2019-04-06T02:16:03.709Z,18.03
2019-04-06T02:18:33.072Z,17.40
2019-04-06T02:21:02.446Z,17.80
2019-04-06T02:23:31.766Z,17.97
2019-04-06T02:26:01.295Z,17.50
2019-04-06T02:28:30.662Z,16.10
2019-04-06T02:31:09.892Z,16.50
2019-04-06T02:33:57.086Z,17.23
2019-04-06T02:37:01.044Z,16.30
2019-04-06T02:39:42.738Z,17.43
2019-04-06T02:42:26.376Z,17.13
2019-04-06T02:44:55.938Z,17.67
2019-04-06T02:47:25.548Z,17.27
2019-04-06T02:49:54.878Z,17.20
2019-04-06T02:52:24.347Z,17.27
2019-04-06T02:54:53.853Z,17.53
2019-04-06T02:57:23.197Z,16.70
2019-04-06T02:59:52.647Z,17.03
2019-04-06T03:02:22.122Z,17.37
2019-04-06T03:04:51.553Z,17.97
2019-04-06T03:07:21.005Z,16.63
2019-04-06T03:09:50.389Z,17.07
2019-04-06T03:12:19.855Z,16.97
2019-04-06T03:14:49.211Z,15.60
2019-04-06T03:17:18.718Z,16.50
2019-04-06T03:19:48.123Z,18.20
2019-04-06T03:22:17.584Z,17.67
2019-04-06T03:24:47.019Z,16.70
2019-04-06T03:27:16.486Z,17.70
2019-04-06T03:29:57.338Z,17.07
2019-04-06T03:32:17.289Z,17.10
2019-04-06T03:34:46.690Z,16.10
2019-04-06T03:37:16.156Z,15.93
2019-04-06T03:39:45.855Z,17.03
2019-04-06T03:42:15.442Z,17.27
2019-04-06T03:44:44.780Z,16.40
2019-04-06T03:47:14.211Z,16.37
2019-04-06T03:49:43.839Z,16.90
2019-04-06T03:52:13.405Z,16.50
2019-04-06T03:54:42.918Z,16.23
2019-04-06T03:57:16.301Z,16.17
2019-04-06T03:59:43.540Z,16.77
2019-04-06T04:02:12.969Z,17.23
2019-04-06T04:04:42.367Z,16.10
2019-04-06T04:07:11.819Z,15.77
2019-04-06T04:09:41.175Z,16.90
2019-04-06T04:12:10.594Z,17.03
2019-04-06T04:14:39.920Z,17.27
2019-04-06T04:17:09.374Z,17.97
2019-04-06T04:19:38.919Z,16.83
2019-04-06T04:22:08.335Z,18.33
2019-04-06T04:24:37.666Z,16.87
2019-04-06T04:27:07.207Z,17.13
2019-04-06T04:29:36.765Z,17.77
2019-04-06T04:32:06.183Z,15.97
2019-04-06T04:34:35.563Z,16.57
2019-04-06T04:37:04.983Z,18.10
2019-04-06T04:39:34.578Z,16.77
2019-04-06T04:42:04.103Z,17.90
2019-04-06T04:44:33.518Z,16.47
2019-04-06T04:47:02.914Z,17.33
2019-04-06T04:49:32.637Z,17.87
2019-04-06T04:52:02.061Z,18.00
2019-04-06T04:54:31.538Z,17.57
2019-04-06T04:57:00.955Z,17.17
2019-04-06T04:59:30.404Z,17.70
2019-04-06T05:01:59.903Z,16.73
2019-04-06T05:04:29.342Z,17.53
2019-04-06T05:06:58.696Z,16.80
2019-04-06T05:09:28.186Z,17.03
2019-04-06T05:11:57.546Z,16.10
2019-04-06T05:14:57.650Z,16.73
2019-04-06T05:17:27.251Z,17.10
2019-04-06T05:19:56.789Z,17.43
2019-04-06T05:22:26.208Z,16.23
2019-04-06T05:24:55.658Z,17.07
2019-04-06T05:27:25.015Z,17.27
2019-04-06T05:29:54.469Z,16.60
2019-04-06T05:32:23.856Z,16.37
2019-04-06T05:34:53.345Z,16.17
2019-04-06T05:37:22.930Z,15.67
2019-04-06T05:39:52.445Z,16.70
2019-04-06T05:42:21.788Z,16.63
2019-04-06T05:44:51.225Z,15.57
2019-04-06T05:47:20.535Z,16.17
2019-04-06T05:49:49.948Z,16.40
2019-04-06T05:52:19.399Z,18.60
2019-04-06T05:54:48.857Z,17.00
2019-04-06T05:57:18.310Z,16.67
2019-04-06T05:59:47.659Z,15.27
2019-04-06T06:02:17.137Z,16.37
2019-04-06T06:04:46.531Z,16.13
2019-04-06T06:07:15.918Z,16.57
2019-04-06T06:09:45.270Z,16.53
2019-04-06T06:12:15.299Z,17.53
2019-04-06T06:14:44.814Z,16.23
2019-04-06T06:17:14.520Z,16.73
2019-04-06T06:19:44.308Z,15.77
2019-04-06T06:22:13.703Z,17.53
2019-04-06T06:24:43.101Z,17.23
2019-04-06T06:27:12.494Z,16.70
2019-04-06T06:29:41.914Z,16.03
2019-04-06T06:32:11.488Z,16.80
2019-04-06T06:34:40.941Z,16.50
2019-04-06T06:37:10.373Z,16.50
2019-04-06T06:39:39.784Z,16.20
2019-04-06T06:42:09.095Z,16.37
2019-04-06T06:44:38.557Z,16.80
2019-04-06T06:47:07.919Z,16.17
2019-04-06T06:49:37.392Z,16.27
2019-04-06T06:52:06.937Z,16.37
2019-04-06T06:54:36.465Z,15.70
2019-04-06T06:57:05.959Z,15.57
2019-04-06T06:59:35.340Z,15.70
2019-04-06T07:02:04.865Z,16.17
2019-04-06T07:04:34.253Z,15.70
2019-04-06T07:07:03.949Z,15.43
2019-04-06T07:09:33.433Z,15.43
2019-04-06T07:12:03.083Z,15.43
2019-04-06T07:14:32.698Z,16.30
2019-04-06T07:17:02.032Z,15.87
2019-04-06T07:19:31.742Z,16.53
2019-04-06T07:22:01.256Z,16.10
2019-04-06T07:24:30.638Z,16.80
2019-04-06T07:27:00.169Z,16.37
2019-04-06T07:29:29.671Z,16.20
2019-04-06T07:31:59.052Z,16.57
2019-04-06T07:34:28.428Z,14.87
2019-04-06T07:36:57.883Z,15.70
2019-04-06T07:39:27.477Z,15.77
2019-04-06T07:41:56.870Z,14.73
2019-04-06T07:44:26.240Z,15.97
2019-04-06T07:46:55.615Z,14.63
2019-04-06T07:49:25.038Z,14.43
2019-04-06T07:51:54.443Z,16.10
2019-04-06T07:54:23.953Z,14.80
2019-04-06T07:56:53.377Z,14.57
2019-04-06T07:59:22.797Z,14.63
2019-04-06T08:01:52.237Z,14.47
2019-04-06T08:04:21.645Z,13.83
2019-04-06T08:06:51.058Z,14.67
2019-04-06T08:09:20.464Z,13.37
2019-04-06T08:11:49.958Z,13.80
2019-04-06T08:14:19.470Z,13.50
2019-04-06T08:16:48.900Z,13.67
2019-04-06T08:19:18.519Z,13.80
2019-04-06T08:21:48.015Z,11.97
2019-04-06T08:24:17.339Z,13.77
2019-04-06T08:26:46.960Z,12.20
2019-04-06T08:29:16.477Z,13.50
2019-04-06T08:31:45.883Z,13.03
2019-04-06T08:34:15.374Z,13.77
2019-04-06T08:36:44.774Z,12.27
2019-04-06T08:39:14.162Z,12.90
2019-04-06T08:41:43.563Z,11.83
2019-04-06T08:44:13.041Z,12.43
2019-04-06T08:46:42.390Z,13.00
2019-04-06T08:49:11.787Z,13.00
2019-04-06T08:51:41.466Z,12.00
2019-04-06T08:54:10.867Z,11.63
2019-04-06T08:56:40.230Z,9.73
2019-04-06T08:59:12.078Z,11.73
2019-04-06T09:01:40.770Z,11.40
2019-04-06T09:04:10.108Z,11.53
2019-04-06T09:06:39.545Z,10.50
2019-04-06T09:09:08.929Z,10.10
2019-04-06T09:11:38.521Z,10.00
2019-04-06T09:14:08.061Z,10.27
2019-04-06T09:16:37.510Z,10.27
2019-04-06T09:19:06.875Z,10.63
2019-04-06T09:21:36.425Z,9.27
2019-04-06T09:24:05.885Z,10.67
2019-04-06T09:26:35.249Z,10.67
2019-04-06T09:29:04.691Z,9.60
2019-04-06T09:31:34.170Z,9.40
2019-04-06T09:34:03.657Z,9.13
2019-04-06T09:36:33.101Z,9.50
2019-04-06T09:39:02.438Z,10.20
2019-04-06T09:41:31.826Z,9.67
2019-04-06T09:44:01.373Z,10.13
2019-04-06T09:46:37.610Z,9.17
2019-04-06T09:49:16.189Z,9.23
2019-04-06T09:52:13.972Z,9.85
2019-04-06T09:54:58.886Z,10.50
2019-04-06T09:57:44.590Z,8.53
2019-04-06T10:00:51.616Z,9.60
2019-04-06T10:04:06.811Z,9.40
2019-04-06T10:06:43.259Z,11.05
2019-04-06T10:09:30.665Z,9.97
2019-04-06T10:12:21.431Z,8.67
2019-04-06T10:15:12.858Z,9.10
2019-04-06T10:18:00.704Z,10.50
2019-04-06T10:20:58.607Z,8.97
2019-04-06T10:23:53.222Z,8.87
2019-04-06T10:26:50.912Z,8.57
2019-04-06T10:29:48.163Z,8.97
2019-04-06T10:32:34.471Z,8.90
2019-04-06T10:35:26.353Z,8.30
2019-04-06T10:38:23.915Z,10.00
2019-04-06T10:41:09.076Z,8.63
2019-04-06T10:44:00.326Z,8.53
2019-04-06T10:46:48.757Z,7.70
2019-04-06T10:49:31.704Z,7.72
2019-04-06T10:52:13.186Z,8.38
2019-04-06T10:55:16.720Z,7.60
2019-04-06T10:58:01.698Z,8.48
2019-04-06T11:00:46.713Z,7.55
2019-04-06T11:03:22.002Z,8.48
2019-04-06T11:06:06.210Z,7.80
2019-04-06T11:08:54.588Z,8.63
2019-04-06T11:12:01.143Z,8.60
2019-04-06T11:14:37.783Z,7.40
2019-04-06T11:17:16.270Z,7.28
2019-04-06T11:20:13.771Z,7.12
2019-04-06T11:23:04.322Z,7.60
2019-04-06T11:25:42.493Z,7.83
2019-04-06T11:28:27.157Z,7.60
2019-04-06T11:31:21.613Z,7.50
2019-04-06T11:34:10.012Z,7.70
2019-04-06T11:36:45.263Z,8.30
2019-04-06T11:39:32.437Z,7.90
2019-04-06T11:42:32.827Z,8.05
2019-04-06T11:45:17.365Z,8.50
2019-04-06T11:48:15.120Z,7.50
2019-04-06T11:51:01.777Z,8.78
2019-04-06T11:53:44.866Z,8.80
2019-04-06T11:56:28.027Z,8.23
2019-04-06T11:59:15.304Z,7.35
2019-04-06T12:02:02.631Z,7.70
2019-04-06T12:04:54.039Z,7.87
2019-04-06T12:07:41.251Z,7.40
2019-04-06T12:10:38.373Z,8.85
2019-04-06T12:13:20.449Z,9.03
2019-04-06T12:16:09.076Z,8.25
2019-04-06T12:18:54.179Z,9.03
2019-04-06T12:21:34.396Z,8.50
2019-04-06T12:24:22.776Z,8.63
2019-04-06T12:27:09.764Z,8.78
2019-04-06T12:29:58.066Z,9.05
2019-04-06T12:32:58.335Z,8.25
2019-04-06T12:35:52.451Z,8.70
2019-04-06T12:38:46.836Z,8.90
2019-04-06T12:41:25.068Z,9.05
2019-04-06T12:44:28.746Z,8.45
2019-04-06T12:47:07.588Z,8.95
2019-04-06T12:49:56.131Z,8.68
2019-04-06T12:52:41.799Z,8.43
2019-04-06T12:55:29.174Z,8.53
2019-04-06T12:58:16.245Z,8.88
2019-04-06T13:01:13.574Z,8.93
2019-04-06T13:04:01.898Z,8.05
2019-04-06T13:06:48.825Z,8.98
2019-04-06T13:09:37.247Z,9.35
2019-04-06T13:12:33.982Z,8.80
2019-04-06T13:15:11.972Z,8.88
2019-04-06T13:17:57.292Z,8.80
2019-04-06T13:20:49.070Z,8.10
2019-04-06T13:23:35.618Z,8.95
2019-04-06T13:26:11.924Z,9.40
2019-04-06T13:29:12.684Z,8.70
2019-04-06T13:32:00.983Z,9.00
2019-04-06T13:34:51.418Z,8.30
2019-04-06T13:37:52.390Z,8.50
2019-04-06T13:40:34.091Z,7.75
2019-04-06T13:43:15.141Z,8.88
2019-04-06T13:46:12.749Z,8.58
2019-04-06T13:49:16.211Z,8.28
2019-04-06T13:51:55.314Z,7.78
2019-04-06T13:54:49.743Z,8.25
2019-04-06T13:57:40.113Z,8.43
2019-04-06T14:00:32.161Z,8.85
2019-04-06T14:03:09.303Z,8.83
2019-04-06T14:06:05.107Z,7.75
2019-04-06T14:09:12.135Z,8.08
2019-04-06T14:11:59.102Z,8.85
2019-04-06T14:14:41.321Z,7.78
2019-04-06T14:17:28.412Z,8.78
2019-04-06T14:20:18.151Z,8.40
2019-04-06T14:23:12.546Z,9.40
2019-04-06T14:26:00.009Z,7.25
2019-04-06T14:29:03.776Z,8.23
2019-04-06T14:32:07.173Z,8.75
2019-04-06T14:34:57.993Z,8.05
2019-04-06T14:37:55.693Z,7.92
2019-04-06T14:40:38.945Z,8.48
2019-04-06T14:43:37.726Z,8.03
2019-04-06T14:46:24.913Z,8.20
2019-04-06T14:49:29.458Z,7.83
2019-04-06T14:51:59.626Z,7.53
2019-04-06T14:54:46.933Z,7.83
2019-04-06T14:57:38.553Z,8.05
2019-04-06T15:00:25.523Z,7.25
2019-04-06T15:03:02.095Z,7.95
2019-04-06T15:05:56.142Z,7.60
2019-04-06T15:08:45.542Z,9.43
2019-04-06T15:11:34.031Z,7.72
2019-04-06T15:14:22.553Z,7.65
2019-04-06T15:17:00.151Z,7.80
2019-04-06T15:19:37.011Z,7.25
2019-04-06T15:22:20.481Z,7.22
2019-04-06T15:25:03.377Z,7.60
2019-04-06T15:27:51.906Z,7.70
2019-04-06T15:30:34.693Z,8.20
2019-04-06T15:33:18.184Z,8.13
2019-04-06T15:36:06.989Z,8.63
2019-04-06T15:38:58.142Z,8.28
2019-04-06T15:41:33.799Z,8.85
2019-04-06T15:44:22.018Z,8.95
2019-04-06T15:47:13.593Z,9.83
2019-04-06T15:50:01.174Z,9.20
2019-04-06T15:53:05.145Z,9.73
2019-04-06T15:55:39.825Z,9.53
2019-04-06T15:58:18.034Z,9.68
2019-04-06T16:01:18.504Z,9.65
2019-04-06T16:03:58.891Z,10.20
2019-04-06T16:06:50.425Z,9.43
2019-04-06T16:09:38.043Z,9.33
2019-04-06T16:12:26.579Z,9.48
2019-04-06T16:15:06.350Z,9.38
2019-04-06T16:17:58.719Z,8.88
2019-04-06T16:20:37.104Z,9.90
2019-04-06T16:23:23.198Z,9.20
2019-04-06T16:26:07.413Z,9.43
2019-04-06T16:28:54.423Z,10.30
2019-04-06T16:31:41.640Z,9.93
2019-04-06T16:34:30.053Z,9.80
2019-04-06T16:37:18.454Z,10.35
2019-04-06T16:40:25.323Z,11.00
2019-04-06T16:43:04.706Z,13.72
2019-04-06T16:46:02.434Z,11.00
2019-04-06T16:48:56.911Z,12.00
2019-04-06T16:51:44.324Z,11.03
2019-04-06T16:54:37.069Z,10.78
2019-04-06T16:57:24.502Z,11.95
2019-04-06T17:00:19.585Z,12.00
2019-04-06T17:02:55.933Z,11.35
2019-04-06T17:05:33.983Z,10.75
2019-04-06T17:08:17.542Z,11.20
2019-04-06T17:11:24.249Z,11.50
2019-04-06T17:14:12.398Z,11.10
2019-04-06T17:17:08.213Z,10.73
2019-04-06T17:19:59.521Z,10.00
2019-04-06T17:22:35.850Z,10.83
2019-04-06T17:25:33.731Z,10.93
2019-04-06T17:28:24.916Z,10.63
2019-04-06T17:31:22.263Z,10.77
2019-04-06T17:34:29.164Z,10.73
2019-04-06T17:37:16.255Z,11.33
2019-04-06T17:39:57.520Z,11.53
2019-04-06T17:42:45.926Z,11.63
2019-04-06T17:45:36.503Z,11.90
2019-04-06T17:48:13.537Z,12.70
2019-04-06T17:51:04.751Z,11.93
2019-04-06T17:54:05.540Z,13.53
2019-04-06T17:57:05.906Z,12.53
2019-04-06T18:00:09.828Z,12.63
2019-04-06T18:03:04.737Z,12.13
2019-04-06T18:05:48.102Z,12.27
2019-04-06T18:08:48.861Z,12.37
2019-04-06T18:11:43.003Z,13.17
2019-04-06T18:14:12.570Z,13.53
2019-04-06T18:16:42.015Z,13.67
2019-04-06T18:19:11.374Z,15.47
2019-04-06T18:21:40.845Z,13.77
2019-04-06T18:24:10.218Z,15.20
2019-04-06T18:26:39.773Z,15.67
2019-04-06T18:29:09.102Z,16.43
2019-04-06T18:32:03.625Z,16.73
2019-04-06T18:34:33.197Z,16.63
2019-04-06T18:37:36.978Z,18.27
2019-04-06T18:40:14.195Z,17.90
2019-04-06T18:42:44.186Z,18.17
2019-04-06T18:45:14.390Z,18.77
2019-04-06T18:47:44.031Z,18.93
2019-04-06T18:50:13.663Z,20.10
2019-04-06T18:52:43.110Z,20.57
2019-04-06T18:55:12.969Z,19.17
2019-04-06T18:57:42.548Z,18.03
2019-04-06T19:00:13.353Z,19.43
2019-04-06T19:02:43.688Z,17.63
2019-04-06T19:05:13.573Z,19.50
2019-04-06T19:07:43.022Z,19.57
2019-04-06T19:10:12.579Z,20.40
2019-04-06T19:12:41.922Z,21.27
2019-04-06T19:15:11.408Z,19.80
2019-04-06T19:17:40.835Z,20.83
2019-04-06T19:20:11.168Z,19.47
2019-04-06T19:22:40.972Z,20.40
2019-04-06T19:25:11.711Z,21.80
2019-04-06T19:27:41.189Z,20.70
2019-04-06T19:30:12.739Z,20.80
2019-04-06T19:32:42.662Z,20.53
2019-04-06T19:35:12.505Z,21.17
2019-04-06T19:37:42.086Z,21.20
2019-04-06T19:40:11.527Z,21.13
2019-04-06T19:42:40.948Z,20.97
2019-04-06T19:45:11.289Z,22.50
2019-04-06T19:47:40.876Z,22.50
2019-04-06T19:50:10.657Z,23.60
2019-04-06T19:52:40.363Z,22.77
2019-04-06T19:55:10.626Z,22.57
2019-04-06T19:57:40.436Z,22.67
2019-04-06T20:00:11.333Z,23.30
2019-04-06T20:02:40.799Z,24.07
2019-04-06T20:05:10.924Z,23.87
2019-04-06T20:07:40.940Z,22.80
2019-04-06T20:10:11.639Z,23.03
2019-04-06T20:12:41.290Z,22.27
2019-04-06T20:15:23.650Z,21.40
2019-04-06T20:17:53.058Z,23.07
2019-04-06T20:20:22.497Z,22.00
2019-04-06T20:22:51.855Z,22.30
2019-04-06T20:25:21.269Z,21.30
2019-04-06T20:27:50.956Z,20.63
2019-04-06T20:30:20.695Z,21.67
2019-04-06T20:32:50.188Z,21.40
2019-04-06T20:35:20.198Z,21.83
2019-04-06T20:37:50.063Z,22.10
2019-04-06T20:40:19.587Z,22.43
2019-04-06T20:42:49.347Z,22.07
2019-04-06T20:45:19.316Z,23.17
2019-04-06T20:47:48.706Z,24.83
2019-04-06T20:50:18.144Z,26.03
2019-04-06T20:52:47.431Z,26.60
2019-04-06T20:55:16.846Z,27.83
2019-04-06T20:57:46.201Z,29.10
2019-04-06T21:00:15.787Z,31.20
2019-04-06T21:02:45.163Z,30.30
2019-04-06T21:05:14.896Z,28.53
2019-04-06T21:07:44.878Z,29.77
2019-04-06T21:10:14.361Z,29.10
2019-04-06T21:12:44.156Z,29.33
2019-04-06T21:15:18.344Z,30.53
2019-04-06T21:17:44.975Z,29.67
2019-04-06T21:20:15.269Z,28.83
2019-04-06T21:22:45.288Z,28.27
2019-04-06T21:25:14.786Z,30.30
2019-04-06T21:27:44.882Z,31.93
2019-04-06T21:30:14.616Z,31.70
2019-04-06T21:32:44.619Z,30.83
2019-04-06T21:35:14.645Z,31.40
2019-04-06T21:37:44.747Z,30.27
2019-04-06T21:40:14.964Z,31.53
2019-04-06T21:42:44.294Z,31.30
2019-04-06T21:45:14.092Z,32.17
2019-04-06T21:47:44.161Z,31.23
2019-04-06T21:50:14.026Z,29.70
2019-04-06T21:52:43.992Z,30.20
2019-04-06T21:55:14.913Z,27.77
2019-04-06T21:57:44.450Z,27.63
2019-04-06T22:00:19.973Z,28.23
2019-04-06T22:02:49.429Z,28.90
2019-04-06T22:05:18.827Z,27.97
2019-04-06T22:07:52.030Z,27.83
2019-04-06T22:10:19.220Z,26.97
2019-04-06T22:12:48.990Z,27.20
2019-04-06T22:15:19.190Z,30.20
2019-04-06T22:17:48.775Z,31.70
2019-04-06T22:20:18.670Z,30.70
2019-04-06T22:22:48.195Z,31.87
2019-04-06T22:25:17.705Z,31.57
2019-04-06T22:27:47.616Z,31.00
2019-04-06T22:30:19.420Z,31.80
2019-04-06T22:32:48.317Z,31.60
2019-04-06T22:35:18.017Z,29.57
2019-04-06T22:37:47.508Z,28.37
2019-04-06T22:40:18.051Z,28.07
2019-04-06T22:42:47.813Z,27.27
2019-04-06T22:45:18.830Z,26.63
2019-04-06T22:47:48.204Z,26.47
2019-04-06T22:50:17.632Z,26.70
2019-04-06T22:52:47.007Z,26.40
2019-04-06T22:55:16.450Z,27.30
2019-04-06T22:57:46.582Z,26.13
2019-04-06T23:00:27.159Z,26.90
2019-04-06T23:03:18.477Z,26.40
2019-04-06T23:05:51.787Z,27.13
2019-04-06T23:08:21.275Z,26.27
2019-04-06T23:10:50.651Z,26.20
2019-04-06T23:13:20.317Z,28.33
2019-04-06T23:15:49.749Z,29.60
2019-04-06T23:18:19.542Z,27.97
2019-04-06T23:20:49.600Z,29.33
2019-04-06T23:23:19.823Z,28.57
2019-04-06T23:25:49.371Z,29.53
2019-04-06T23:28:18.700Z,27.27
2019-04-06T23:30:48.122Z,29.53
2019-04-06T23:33:17.651Z,30.13
2019-04-06T23:35:47.116Z,27.87
2019-04-06T23:38:16.754Z,27.83
2019-04-06T23:40:47.072Z,28.83
2019-04-06T23:43:16.630Z,28.63
2019-04-06T23:45:45.925Z,26.83
2019-04-06T23:48:15.374Z,28.10
2019-04-06T23:50:45.136Z,26.97
2019-04-06T23:53:14.884Z,28.80
2019-04-06T23:55:44.610Z,26.97
2019-04-06T23:58:14.104Z,26.30
